createdAt,value
2022-09-28T00:00:58.648Z,10.98
2022-09-28T00:03:25.226Z,10.96
2022-09-28T00:05:51.589Z,10.95
2022-09-28T00:08:17.901Z,11.02
2022-09-28T00:10:46.262Z,11.07
2022-09-28T00:13:12.561Z,11.05
2022-09-28T00:15:41.644Z,11.04
2022-09-28T00:18:07.955Z,11.03
2022-09-28T00:20:34.253Z,11.04
2022-09-28T00:23:00.549Z,11.03
2022-09-28T00:25:27.972Z,11.00
2022-09-28T00:27:54.598Z,11.00
2022-09-28T00:30:20.958Z,10.95
2022-09-28T00:32:47.292Z,10.93
2022-09-28T00:35:13.809Z,10.94
2022-09-28T00:37:40.747Z,10.95
2022-09-28T00:40:07.254Z,10.92
2022-09-28T00:42:33.565Z,10.93
2022-09-28T00:44:59.931Z,10.90
2022-09-28T00:47:32.131Z,10.90
2022-09-28T00:50:01.228Z,10.90
2022-09-28T00:52:41.162Z,10.92
2022-09-28T00:55:09.495Z,10.94
2022-09-28T00:57:36.813Z,10.94
2022-09-28T01:00:04.335Z,10.93
2022-09-28T01:02:31.130Z,10.92
2022-09-28T01:04:58.766Z,10.85
2022-09-28T01:07:25.380Z,10.83
2022-09-28T01:09:53.865Z,10.78
2022-09-28T01:12:20.318Z,10.77
2022-09-28T01:14:47.013Z,10.78
2022-09-28T01:17:13.292Z,10.78
2022-09-28T01:19:58.204Z,10.79
2022-09-28T01:22:37.015Z,10.79
2022-09-28T01:25:23.581Z,10.80
2022-09-28T01:27:52.354Z,10.82
2022-09-28T01:30:20.346Z,10.85
2022-09-28T01:33:06.839Z,10.86
2022-09-28T01:35:39.363Z,10.90
2022-09-28T01:38:08.468Z,10.91
2022-09-28T01:40:36.353Z,10.91
2022-09-28T01:43:13.569Z,10.89
2022-09-28T01:45:43.087Z,10.85
2022-09-28T01:48:10.879Z,10.81
2022-09-28T01:50:39.633Z,10.77
2022-09-28T01:53:11.263Z,10.75
2022-09-28T01:55:41.732Z,10.74
2022-09-28T01:58:17.602Z,10.64
2022-09-28T02:00:48.078Z,10.69
2022-09-28T02:03:16.254Z,10.68
2022-09-28T02:05:46.883Z,10.64
2022-09-28T02:08:21.823Z,10.65
2022-09-28T02:10:51.894Z,10.65
2022-09-28T02:13:21.120Z,10.58
2022-09-28T02:15:50.170Z,10.45
2022-09-28T02:18:17.325Z,10.44
2022-09-28T02:20:47.565Z,10.48
2022-09-28T02:23:15.190Z,10.45
2022-09-28T02:25:47.244Z,10.42
2022-09-28T02:28:14.105Z,10.42
2022-09-28T02:30:42.316Z,10.38
2022-09-28T02:33:13.964Z,10.37
2022-09-28T02:35:41.607Z,10.38
2022-09-28T02:38:07.939Z,10.38
2022-09-28T02:40:35.220Z,10.39
2022-09-28T02:43:16.568Z,10.39
2022-09-28T02:45:51.910Z,10.38
2022-09-28T02:48:24.078Z,10.36
2022-09-28T02:51:27.121Z,10.40
2022-09-28T02:54:16.650Z,10.39
2022-09-28T02:56:58.288Z,10.36
2022-09-28T02:59:46.335Z,10.30
2022-09-28T03:02:19.629Z,10.26
2022-09-28T03:04:52.259Z,10.25
2022-09-28T03:07:21.573Z,10.24
2022-09-28T03:09:50.744Z,10.22
2022-09-28T03:12:18.663Z,10.22
2022-09-28T03:14:45.221Z,10.21
2022-09-28T03:17:11.549Z,10.16
2022-09-28T03:19:38.072Z,10.10
2022-09-28T03:22:05.562Z,10.08
2022-09-28T03:24:31.869Z,10.03
2022-09-28T03:26:58.186Z,10.06
2022-09-28T03:29:31.247Z,10.06
2022-09-28T03:31:57.687Z,10.05
2022-09-28T03:34:24.049Z,10.09
2022-09-28T03:36:50.393Z,10.12
2022-09-28T03:39:16.873Z,10.14
2022-09-28T03:41:43.401Z,10.14
2022-09-28T03:44:09.797Z,10.17
2022-09-28T03:46:36.100Z,10.16
2022-09-28T03:49:02.509Z,10.17
2022-09-28T03:51:28.866Z,10.11
2022-09-28T03:53:55.194Z,10.15
2022-09-28T03:56:21.576Z,10.13
2022-09-28T03:58:47.965Z,10.12
2022-09-28T04:01:17.642Z,10.11
2022-09-28T04:03:44.735Z,10.07
2022-09-28T04:06:11.477Z,10.06
2022-09-28T04:08:37.839Z,10.07
2022-09-28T04:11:04.293Z,10.09
2022-09-28T04:13:30.727Z,10.10
2022-09-28T04:15:57.717Z,10.10
2022-09-28T04:18:24.493Z,10.10
2022-09-28T04:21:06.566Z,10.06
2022-09-28T04:23:34.519Z,10.07
2022-09-28T04:26:00.830Z,10.10
2022-09-28T04:28:45.773Z,10.11
2022-09-28T04:31:14.928Z,10.10
2022-09-28T04:33:41.323Z,10.11
2022-09-28T04:36:09.247Z,10.09
2022-09-28T04:38:52.208Z,10.10
2022-09-28T04:41:19.051Z,10.10
2022-09-28T04:43:48.542Z,10.10
2022-09-28T04:46:15.186Z,10.07
2022-09-28T04:48:41.574Z,10.06
2022-09-28T04:51:07.851Z,10.09
2022-09-28T04:53:35.023Z,10.10
2022-09-28T04:56:02.502Z,10.12
2022-09-28T04:58:28.942Z,10.13
2022-09-28T05:00:59.692Z,10.17
2022-09-28T05:03:26.169Z,10.14
2022-09-28T05:05:52.530Z,10.08
2022-09-28T05:08:18.915Z,10.03
2022-09-28T05:10:45.382Z,10.05
2022-09-28T05:13:12.596Z,10.01
2022-09-28T05:15:39.595Z,9.97
2022-09-28T05:18:06.449Z,9.99
2022-09-28T05:20:33.097Z,10.00
2022-09-28T05:22:59.453Z,10.00
2022-09-28T05:25:26.364Z,10.02
2022-09-28T05:27:56.660Z,10.02
2022-09-28T05:30:24.175Z,10.03
2022-09-28T05:32:51.006Z,10.03
2022-09-28T05:35:17.419Z,10.03
2022-09-28T05:37:43.794Z,10.04
2022-09-28T05:40:10.673Z,10.04
2022-09-28T05:42:37.048Z,10.06
2022-09-28T05:45:03.752Z,10.05
2022-09-28T05:47:30.136Z,10.12
2022-09-28T05:49:56.575Z,10.14
2022-09-28T05:52:22.918Z,10.12
2022-09-28T05:54:49.247Z,10.13
2022-09-28T05:57:15.637Z,10.13
2022-09-28T05:59:41.937Z,10.12
2022-09-28T06:02:10.052Z,10.08
2022-09-28T06:04:36.385Z,10.07
2022-09-28T06:07:02.682Z,10.06
2022-09-28T06:09:29.961Z,10.05
2022-09-28T06:11:57.707Z,10.11
2022-09-28T06:14:27.012Z,10.14
2022-09-28T06:16:53.331Z,10.13
2022-09-28T06:19:19.695Z,10.11
2022-09-28T06:21:47.151Z,10.12
2022-09-28T06:24:13.673Z,10.13
2022-09-28T06:26:40.006Z,10.18
2022-09-28T06:29:06.324Z,10.21
2022-09-28T06:31:32.698Z,10.23
2022-09-28T06:34:02.054Z,10.20
2022-09-28T06:36:29.304Z,10.21
2022-09-28T06:38:55.637Z,10.22
2022-09-28T06:41:21.964Z,10.21
2022-09-28T06:43:48.511Z,10.25
2022-09-28T06:46:14.893Z,10.30
2022-09-28T06:48:45.041Z,10.35
2022-09-28T06:51:11.465Z,10.37
2022-09-28T06:53:37.836Z,10.41
2022-09-28T06:56:04.893Z,10.42
2022-09-28T06:58:32.177Z,10.44
2022-09-28T07:00:59.290Z,10.45
2022-09-28T07:03:25.961Z,10.46
2022-09-28T07:05:53.962Z,10.47
2022-09-28T07:08:21.658Z,10.46
2022-09-28T07:10:49.035Z,10.46
2022-09-28T07:13:44.265Z,10.41
2022-09-28T07:16:03.513Z,10.35
2022-09-28T07:18:29.966Z,10.30
2022-09-28T07:20:59.316Z,10.25
2022-09-28T07:23:27.418Z,10.32
2022-09-28T07:25:53.811Z,10.45
2022-09-28T07:28:21.053Z,10.62
2022-09-28T07:30:47.703Z,10.91
2022-09-28T07:33:15.769Z,11.13
2022-09-28T07:35:45.117Z,11.26
2022-09-28T07:38:11.457Z,11.32
2022-09-28T07:40:56.867Z,11.49
2022-09-28T07:43:23.352Z,11.71
2022-09-28T07:45:51.642Z,11.82
2022-09-28T07:48:18.609Z,11.78
2022-09-28T07:50:50.101Z,11.87
2022-09-28T07:53:16.399Z,12.04
2022-09-28T07:55:42.710Z,12.18
2022-09-28T07:58:09.062Z,12.34
2022-09-28T08:00:35.371Z,12.55
2022-09-28T08:03:02.238Z,12.68
2022-09-28T08:05:32.056Z,12.73
2022-09-28T08:07:59.624Z,12.90
2022-09-28T08:10:26.441Z,13.13
2022-09-28T08:12:59.221Z,13.47
2022-09-28T08:15:29.481Z,13.77
2022-09-28T08:17:59.112Z,13.91
2022-09-28T08:20:50.802Z,14.05
2022-09-28T08:23:18.590Z,14.33
2022-09-28T08:25:51.295Z,14.55
2022-09-28T08:28:17.855Z,14.76
2022-09-28T08:30:45.109Z,14.94
2022-09-28T08:33:15.707Z,15.21
2022-09-28T08:35:42.037Z,15.51
2022-09-28T08:38:08.858Z,15.73
2022-09-28T08:40:40.024Z,16.00
2022-09-28T08:43:15.290Z,16.23
2022-09-28T08:45:41.656Z,16.50
2022-09-28T08:48:29.908Z,16.70
2022-09-28T08:51:00.580Z,16.80
2022-09-28T08:53:30.272Z,17.07
2022-09-28T08:55:58.797Z,17.16
2022-09-28T08:58:32.598Z,17.44
2022-09-28T09:01:00.157Z,17.62
2022-09-28T09:03:35.575Z,17.84
2022-09-28T09:06:10.410Z,18.02
2022-09-28T09:08:57.311Z,18.17
2022-09-28T09:11:23.651Z,18.33
2022-09-28T09:13:49.982Z,18.72
2022-09-28T09:16:35.185Z,19.00
2022-09-28T09:19:01.562Z,18.60
2022-09-28T09:21:40.392Z,18.37
2022-09-28T09:24:06.694Z,18.59
2022-09-28T09:26:39.462Z,18.94
2022-09-28T09:29:08.783Z,19.05
2022-09-28T09:31:42.733Z,19.32
2022-09-28T09:34:28.117Z,19.59
2022-09-28T09:37:10.559Z,19.94
2022-09-28T09:39:55.755Z,19.79
2022-09-28T09:42:29.591Z,20.11
2022-09-28T09:45:02.597Z,20.35
2022-09-28T09:47:31.967Z,20.77
2022-09-28T09:49:58.254Z,20.92
2022-09-28T09:55:09.932Z,20.60
2022-09-28T09:57:36.203Z,20.61
2022-09-28T10:00:03.637Z,20.25
2022-09-28T10:02:32.030Z,19.81
2022-09-28T10:05:10.301Z,19.22
2022-09-28T10:07:43.715Z,19.34
2022-09-28T10:10:18.007Z,19.86
2022-09-28T10:12:44.665Z,20.23
2022-09-28T10:15:14.952Z,19.89
2022-09-28T10:17:41.354Z,19.98
2022-09-28T10:20:12.629Z,20.04
2022-09-28T10:22:39.932Z,19.77
2022-09-28T10:25:08.838Z,19.47
2022-09-28T10:27:36.436Z,18.96
2022-09-28T10:30:23.408Z,18.72
2022-09-28T10:32:51.267Z,18.65
2022-09-28T10:35:25.727Z,18.53
2022-09-28T10:37:54.098Z,18.44
2022-09-28T10:40:30.049Z,18.39
2022-09-28T10:43:00.701Z,18.32
2022-09-28T10:45:34.631Z,18.18
2022-09-28T10:48:01.601Z,17.99
2022-09-28T10:50:28.130Z,17.89
2022-09-28T10:53:10.745Z,17.66
2022-09-28T10:55:37.549Z,17.81
2022-09-28T10:58:24.044Z,17.76
2022-09-28T11:00:50.663Z,17.59
2022-09-28T11:03:24.076Z,17.52
2022-09-28T11:06:08.709Z,17.35
2022-09-28T11:08:39.494Z,17.20
2022-09-28T11:11:10.353Z,17.13
2022-09-28T11:13:48.095Z,17.04
2022-09-28T11:16:20.978Z,17.01
2022-09-28T11:18:47.349Z,16.96
2022-09-28T11:21:18.494Z,17.01
2022-09-28T11:24:06.334Z,17.00
2022-09-28T11:26:43.268Z,17.06
2022-09-28T11:29:26.398Z,17.15
2022-09-28T11:31:52.913Z,17.09
2022-09-28T11:34:31.084Z,17.10
2022-09-28T11:37:22.673Z,17.15
2022-09-28T11:39:59.211Z,17.17
2022-09-28T11:42:34.687Z,16.95
2022-09-28T11:45:19.613Z,16.97
2022-09-28T11:47:52.702Z,17.02
2022-09-28T11:50:23.691Z,17.07
2022-09-28T11:52:59.997Z,17.29
2022-09-28T11:55:26.340Z,17.68
2022-09-28T11:57:57.645Z,17.90
2022-09-28T12:00:24.489Z,18.01
2022-09-28T12:03:09.738Z,17.81
2022-09-28T12:05:54.721Z,17.45
2022-09-28T12:08:27.630Z,17.86
2022-09-28T12:10:55.154Z,18.19
2022-09-28T12:13:25.322Z,18.69
2022-09-28T12:16:27.619Z,19.31
2022-09-28T12:18:56.142Z,19.71
2022-09-28T12:21:38.200Z,19.75
2022-09-28T12:24:24.822Z,19.71
2022-09-28T12:26:51.204Z,19.83
2022-09-28T12:29:24.464Z,19.83
2022-09-28T12:31:53.648Z,19.85
2022-09-28T12:34:21.122Z,19.87
2022-09-28T12:36:47.470Z,19.84
2022-09-28T12:39:53.666Z,19.59
2022-09-28T12:42:36.680Z,19.26
2022-09-28T12:45:12.624Z,19.46
2022-09-28T12:48:08.177Z,19.80
2022-09-28T12:50:50.104Z,20.10
2022-09-28T12:53:36.109Z,20.32
2022-09-28T12:56:20.958Z,20.51
2022-09-28T12:58:48.377Z,20.62
2022-09-28T13:01:23.928Z,20.64
2022-09-28T13:04:13.344Z,20.18
2022-09-28T13:06:48.829Z,19.58
2022-09-28T13:09:15.480Z,19.62
2022-09-28T13:11:41.838Z,20.14
2022-09-28T13:14:26.884Z,20.77
2022-09-28T13:16:56.155Z,20.95
2022-09-28T13:19:32.088Z,21.18
2022-09-28T13:22:07.688Z,20.99
2022-09-28T13:24:38.547Z,20.57
2022-09-28T13:27:10.252Z,20.06
2022-09-28T13:32:11.260Z,19.26
2022-09-28T13:34:38.060Z,19.41
2022-09-28T13:37:09.804Z,19.34
2022-09-28T13:39:57.311Z,19.31
2022-09-28T13:42:38.885Z,19.02
2022-09-28T13:45:20.348Z,19.35
2022-09-28T13:47:49.793Z,19.72
2022-09-28T13:50:34.678Z,20.06
2022-09-28T13:53:03.938Z,19.88
2022-09-28T13:55:37.048Z,20.09
2022-09-28T13:58:06.328Z,20.10
2022-09-28T14:00:44.253Z,20.17
2022-09-28T14:03:13.166Z,20.26
2022-09-28T14:05:47.653Z,19.81
2022-09-28T14:08:34.477Z,19.65
2022-09-28T14:11:21.701Z,19.72
2022-09-28T14:14:20.334Z,20.09
2022-09-28T14:16:47.150Z,20.28
2022-09-28T14:19:24.268Z,20.29
2022-09-28T14:21:59.416Z,20.21
2022-09-28T14:24:27.241Z,20.08
2022-09-28T14:26:53.636Z,20.17
2022-09-28T14:29:31.548Z,20.53
2022-09-28T14:32:03.425Z,20.61
2022-09-28T14:34:41.669Z,20.71
2022-09-28T14:37:45.080Z,20.81
2022-09-28T14:40:37.526Z,20.62
2022-09-28T14:43:21.382Z,20.64
2022-09-28T14:45:47.740Z,20.76
2022-09-28T14:48:17.894Z,20.82
2022-09-28T14:50:46.733Z,20.82
2022-09-28T14:53:23.813Z,20.49
2022-09-28T14:55:53.933Z,20.01
2022-09-28T14:58:25.595Z,19.47
2022-09-28T15:01:04.586Z,19.28
2022-09-28T15:03:32.974Z,18.96
2022-09-28T15:06:02.151Z,18.76
2022-09-28T15:08:38.652Z,18.58
2022-09-28T15:11:05.472Z,18.40
2022-09-28T15:13:32.103Z,18.21
2022-09-28T15:16:06.702Z,18.14
2022-09-28T15:18:33.206Z,18.07
2022-09-28T15:20:59.713Z,17.99
2022-09-28T15:23:36.758Z,17.49
2022-09-28T15:26:04.121Z,17.22
2022-09-28T15:28:30.453Z,17.18
2022-09-28T15:31:04.093Z,17.13
2022-09-28T15:33:50.429Z,17.08
2022-09-28T15:36:27.766Z,17.05
2022-09-28T15:39:05.197Z,17.07
2022-09-28T15:41:31.777Z,17.06
2022-09-28T15:44:10.075Z,17.06
2022-09-28T15:46:37.668Z,16.99
2022-09-28T15:49:05.352Z,16.87
2022-09-28T15:51:44.413Z,16.77
2022-09-28T15:54:19.258Z,16.70
2022-09-28T15:56:58.782Z,16.62
2022-09-28T15:59:28.093Z,16.61
2022-09-28T16:02:08.235Z,16.59
2022-09-28T16:04:39.585Z,16.61
2022-09-28T16:07:18.118Z,16.63
2022-09-28T16:09:56.581Z,16.63
2022-09-28T16:12:24.263Z,16.64
2022-09-28T16:14:55.904Z,16.62
2022-09-28T16:17:34.945Z,16.63
2022-09-28T16:20:03.472Z,16.62
2022-09-28T16:22:32.365Z,16.61
2022-09-28T16:24:59.925Z,16.55
2022-09-28T16:27:45.577Z,16.47
2022-09-28T16:30:11.994Z,16.33
2022-09-28T16:32:41.746Z,16.21
2022-09-28T16:35:11.150Z,16.16
2022-09-28T16:37:40.789Z,16.13
2022-09-28T16:40:08.685Z,16.09
2022-09-28T16:42:35.632Z,16.02
2022-09-28T16:45:04.991Z,15.90
2022-09-28T16:47:34.892Z,15.88
2022-09-28T16:50:03.638Z,15.84
2022-09-28T16:52:48.489Z,15.86
2022-09-28T16:58:04.671Z,15.87
2022-09-28T17:00:31.798Z,15.83
2022-09-28T17:02:58.468Z,15.81
2022-09-28T17:05:25.409Z,15.76
2022-09-28T17:08:01.800Z,15.75
2022-09-28T17:11:02.124Z,15.68
2022-09-28T17:13:31.611Z,15.58
2022-09-28T17:15:58.525Z,15.49
2022-09-28T17:18:24.887Z,15.42
2022-09-28T17:20:54.947Z,15.36
2022-09-28T17:23:21.481Z,15.32
2022-09-28T17:25:48.018Z,15.26
2022-09-28T17:28:17.127Z,15.18
2022-09-28T17:30:43.470Z,15.14
2022-09-28T17:33:09.782Z,15.05
2022-09-28T17:35:39.645Z,14.97
2022-09-28T17:38:06.410Z,14.88
2022-09-28T17:40:32.848Z,14.80
2022-09-28T17:42:59.940Z,14.73
2022-09-28T17:45:28.477Z,14.70
2022-09-28T17:47:57.832Z,14.66
2022-09-28T17:50:32.395Z,14.61
2022-09-28T17:52:59.913Z,14.54
2022-09-28T17:55:31.509Z,14.50
2022-09-28T17:57:58.975Z,14.43
2022-09-28T18:00:27.380Z,14.38
2022-09-28T18:02:54.615Z,14.31
2022-09-28T18:05:21.594Z,14.23
2022-09-28T18:07:49.462Z,14.16
2022-09-28T18:10:17.186Z,14.09
2022-09-28T18:12:43.488Z,14.07
2022-09-28T18:15:10.188Z,14.01
2022-09-28T18:17:36.692Z,13.96
2022-09-28T18:20:03.846Z,13.94
2022-09-28T18:22:30.178Z,13.85
2022-09-28T18:24:56.483Z,13.77
2022-09-28T18:27:22.891Z,13.72
2022-09-28T18:29:49.221Z,13.64
2022-09-28T18:32:16.225Z,13.60
2022-09-28T18:34:42.785Z,13.55
2022-09-28T18:37:10.326Z,13.49
2022-09-28T18:39:36.728Z,13.45
2022-09-28T18:42:03.153Z,13.41
2022-09-28T18:44:29.606Z,13.34
2022-09-28T18:46:56.007Z,13.31
2022-09-28T18:49:22.887Z,13.28
2022-09-28T18:51:49.258Z,13.25
2022-09-28T18:54:15.742Z,13.19
2022-09-28T18:56:42.088Z,13.16
2022-09-28T18:59:12.549Z,13.14
2022-09-28T19:01:39.146Z,13.07
2022-09-28T19:04:06.991Z,13.04
2022-09-28T19:06:34.238Z,12.99
2022-09-28T19:09:00.892Z,12.94
2022-09-28T19:11:28.474Z,12.86
2022-09-28T19:13:54.941Z,12.81
2022-09-28T19:16:22.453Z,12.76
2022-09-28T19:18:48.798Z,12.77
2022-09-28T19:21:15.919Z,12.77
2022-09-28T19:23:46.952Z,12.75
2022-09-28T19:26:20.862Z,12.73
2022-09-28T19:28:47.657Z,12.66
2022-09-28T19:31:14.018Z,12.60
2022-09-28T19:33:40.936Z,12.58
2022-09-28T19:36:12.292Z,12.55
2022-09-28T19:38:39.738Z,12.52
2022-09-28T19:41:13.301Z,12.50
2022-09-28T19:43:43.561Z,12.47
2022-09-28T19:46:09.937Z,12.48
2022-09-28T19:48:36.392Z,12.49
2022-09-28T19:51:04.271Z,12.45
2022-09-28T19:53:37.898Z,12.43
2022-09-28T19:56:07.714Z,12.41
2022-09-28T19:58:35.504Z,12.39
2022-09-28T20:01:06.404Z,12.35
2022-09-28T20:03:33.645Z,12.31
2022-09-28T20:06:01.591Z,12.26
2022-09-28T20:08:30.113Z,12.21
2022-09-28T20:10:57.356Z,12.17
2022-09-28T20:13:29.240Z,12.15
2022-09-28T20:15:56.355Z,12.12
2022-09-28T20:18:22.928Z,12.04
2022-09-28T20:21:00.238Z,11.98
2022-09-28T20:23:27.049Z,11.92
2022-09-28T20:25:53.597Z,11.87
2022-09-28T20:28:20.302Z,11.79
2022-09-28T20:30:48.186Z,11.74
2022-09-28T20:33:22.905Z,11.72
2022-09-28T20:36:03.798Z,11.66
2022-09-28T20:38:31.153Z,11.58
2022-09-28T20:41:01.693Z,11.49
2022-09-28T20:43:34.507Z,11.43
2022-09-28T20:46:03.242Z,11.34
2022-09-28T20:48:29.694Z,11.29
2022-09-28T20:51:02.780Z,11.25
2022-09-28T20:53:30.782Z,11.24
2022-09-28T20:56:01.398Z,11.27
2022-09-28T20:58:28.253Z,11.25
2022-09-28T21:01:17.202Z,11.23
2022-09-28T21:03:48.776Z,11.21
2022-09-28T21:06:16.370Z,11.15
2022-09-28T21:08:44.419Z,11.09
2022-09-28T21:11:11.514Z,11.02
2022-09-28T21:13:41.905Z,10.98
2022-09-28T21:16:11.919Z,10.93
2022-09-28T21:18:41.706Z,10.85
2022-09-28T21:21:09.784Z,10.77
2022-09-28T21:23:36.296Z,10.75
2022-09-28T21:26:06.893Z,10.74
2022-09-28T21:28:33.893Z,10.70
2022-09-28T21:31:00.981Z,10.70
2022-09-28T21:33:27.448Z,10.70
2022-09-28T21:35:53.847Z,10.70
2022-09-28T21:38:20.308Z,10.65
2022-09-28T21:40:47.690Z,10.62
2022-09-28T21:43:14.133Z,10.60
2022-09-28T21:45:40.888Z,10.59
2022-09-28T21:48:07.377Z,10.59
2022-09-28T21:50:34.032Z,10.57
2022-09-28T21:53:01.707Z,10.58
2022-09-28T21:55:28.386Z,10.59
2022-09-28T21:57:54.764Z,10.60
2022-09-28T22:00:23.198Z,10.56
2022-09-28T22:02:50.843Z,10.55
2022-09-28T22:05:17.815Z,10.53
2022-09-28T22:07:44.235Z,10.53
2022-09-28T22:10:12.167Z,10.51
2022-09-28T22:12:39.008Z,10.51
2022-09-28T22:15:05.574Z,10.51
2022-09-28T22:17:32.542Z,10.48
2022-09-28T22:19:58.850Z,10.47
2022-09-28T22:22:28.973Z,10.47
2022-09-28T22:24:56.103Z,10.46
2022-09-28T22:27:23.217Z,10.43
2022-09-28T22:29:51.014Z,10.39
2022-09-28T22:32:17.393Z,10.35
2022-09-28T22:34:44.484Z,10.31
2022-09-28T22:37:11.732Z,10.32
2022-09-28T22:39:41.119Z,10.32
2022-09-28T22:42:08.207Z,10.34
2022-09-28T22:44:35.958Z,10.36
2022-09-28T22:47:03.433Z,10.36
2022-09-28T22:49:29.845Z,10.32
2022-09-28T22:51:56.408Z,10.32
2022-09-28T22:54:22.721Z,10.31
2022-09-28T22:56:49.298Z,10.29
2022-09-28T22:59:15.685Z,10.26
2022-09-28T23:01:42.357Z,10.20
2022-09-28T23:04:08.937Z,10.15
2022-09-28T23:06:35.265Z,10.10
2022-09-28T23:09:02.063Z,10.07
2022-09-28T23:11:28.884Z,10.01
2022-09-28T23:13:58.607Z,9.95
2022-09-28T23:16:25.771Z,9.94
2022-09-28T23:18:55.710Z,9.89
2022-09-28T23:21:23.569Z,9.84
2022-09-28T23:23:57.314Z,9.80
2022-09-28T23:26:27.582Z,9.76
2022-09-28T23:28:54.314Z,9.70
2022-09-28T23:31:24.890Z,9.65
2022-09-28T23:33:51.854Z,9.61
2022-09-28T23:36:18.337Z,9.53
2022-09-28T23:38:45.006Z,9.48
2022-09-28T23:41:11.431Z,9.46
2022-09-28T23:43:37.976Z,9.40
2022-09-28T23:46:04.674Z,9.38
2022-09-28T23:48:31.205Z,9.37
2022-09-28T23:50:57.953Z,9.33
2022-09-28T23:53:24.269Z,9.30
2022-09-28T23:55:50.726Z,9.27
2022-09-28T23:58:16.996Z,9.25
